sensor_id;sensor_type;location;lat;lon;timestamp;temperature;humidity
21823;DHT22;11074;48.596;9.238;2023-07-29T00:01:42;18.10;99.90
21823;DHT22;11074;48.596;9.238;2023-07-29T00:04:08;18.10;99.90
21823;DHT22;11074;48.596;9.238;2023-07-29T00:06:35;18.10;99.90
21823;DHT22;11074;48.596;9.238;2023-07-29T00:09:01;18.10;99.90
21823;DHT22;11074;48.596;9.238;2023-07-29T00:11:27;18.00;99.90
21823;DHT22;11074;48.596;9.238;2023-07-29T00:13:53;18.00;99.90
21823;DHT22;11074;48.596;9.238;2023-07-29T00:16:20;18.00;99.90
21823;DHT22;11074;48.596;9.238;2023-07-29T00:18:49;18.00;99.90
21823;DHT22;11074;48.596;9.238;2023-07-29T00:21:15;18.10;99.90
21823;DHT22;11074;48.596;9.238;2023-07-29T00:23:40;18.10;99.90
21823;DHT22;11074;48.596;9.238;2023-07-29T00:26:06;18.10;99.90
21823;DHT22;11074;48.596;9.238;2023-07-29T00:28:32;18.10;99.90
21823;DHT22;11074;48.596;9.238;2023-07-29T00:30:57;18.00;99.90
21823;DHT22;11074;48.596;9.238;2023-07-29T00:33:23;18.00;99.90
21823;DHT22;11074;48.596;9.238;2023-07-29T00:35:49;18.00;99.90
21823;DHT22;11074;48.596;9.238;2023-07-29T00:38:14;18.00;99.90
21823;DHT22;11074;48.596;9.238;2023-07-29T00:40:40;18.00;99.90
21823;DHT22;11074;48.596;9.238;2023-07-29T00:43:06;18.00;99.90
21823;DHT22;11074;48.596;9.238;2023-07-29T00:45:32;18.00;99.90
21823;DHT22;11074;48.596;9.238;2023-07-29T00:47:59;18.00;99.90
21823;DHT22;11074;48.596;9.238;2023-07-29T00:50:25;18.00;99.90
21823;DHT22;11074;48.596;9.238;2023-07-29T00:52:54;18.00;99.90
21823;DHT22;11074;48.596;9.238;2023-07-29T00:55:20;18.00;99.90
21823;DHT22;11074;48.596;9.238;2023-07-29T00:57:46;18.10;99.90
21823;DHT22;11074;48.596;9.238;2023-07-29T01:00:14;18.00;99.90
21823;DHT22;11074;48.596;9.238;2023-07-29T01:02:45;18.00;99.90
21823;DHT22;11074;48.596;9.238;2023-07-29T01:05:12;18.10;99.90
21823;DHT22;11074;48.596;9.238;2023-07-29T01:08:09;18.10;99.90
21823;DHT22;11074;48.596;9.238;2023-07-29T01:11:01;18.10;99.90
21823;DHT22;11074;48.596;9.238;2023-07-29T01:16:50;18.10;99.90
21823;DHT22;11074;48.596;9.238;2023-07-29T01:22:32;18.10;99.90
21823;DHT22;11074;48.596;9.238;2023-07-29T01:24:59;18.10;99.90
21823;DHT22;11074;48.596;9.238;2023-07-29T01:27:25;18.10;99.90
21823;DHT22;11074;48.596;9.238;2023-07-29T01:29:55;18.10;99.90
21823;DHT22;11074;48.596;9.238;2023-07-29T01:35:39;18.10;99.90
21823;DHT22;11074;48.596;9.238;2023-07-29T01:40:48;18.10;99.90
21823;DHT22;11074;48.596;9.238;2023-07-29T01:43:16;18.10;99.90
21823;DHT22;11074;48.596;9.238;2023-07-29T01:45:44;18.10;99.90
21823;DHT22;11074;48.596;9.238;2023-07-29T01:48:10;18.10;99.90
21823;DHT22;11074;48.596;9.238;2023-07-29T01:50:35;18.10;99.90
21823;DHT22;11074;48.596;9.238;2023-07-29T01:53:01;18.10;99.90
21823;DHT22;11074;48.596;9.238;2023-07-29T01:55:27;18.10;99.90
21823;DHT22;11074;48.596;9.238;2023-07-29T01:57:52;18.10;99.90
21823;DHT22;11074;48.596;9.238;2023-07-29T02:00:18;18.10;99.90
21823;DHT22;11074;48.596;9.238;2023-07-29T02:02:44;18.10;99.90
21823;DHT22;11074;48.596;9.238;2023-07-29T02:05:10;18.10;99.90
21823;DHT22;11074;48.596;9.238;2023-07-29T02:07:36;18.10;99.90
21823;DHT22;11074;48.596;9.238;2023-07-29T02:10:02;18.10;99.90
21823;DHT22;11074;48.596;9.238;2023-07-29T02:12:28;18.00;99.90
21823;DHT22;11074;48.596;9.238;2023-07-29T02:14:53;18.00;99.90
21823;DHT22;11074;48.596;9.238;2023-07-29T02:17:19;18.00;99.90
21823;DHT22;11074;48.596;9.238;2023-07-29T02:19:45;18.00;99.90
21823;DHT22;11074;48.596;9.238;2023-07-29T02:22:13;18.00;99.90
21823;DHT22;11074;48.596;9.238;2023-07-29T02:24:39;18.00;99.90
21823;DHT22;11074;48.596;9.238;2023-07-29T02:27:06;18.00;99.90
21823;DHT22;11074;48.596;9.238;2023-07-29T02:29:32;18.00;99.90
21823;DHT22;11074;48.596;9.238;2023-07-29T02:31:58;18.00;99.90
21823;DHT22;11074;48.596;9.238;2023-07-29T02:34:25;18.00;99.90
21823;DHT22;11074;48.596;9.238;2023-07-29T02:36:50;18.00;99.90
21823;DHT22;11074;48.596;9.238;2023-07-29T02:39:16;18.00;99.90
21823;DHT22;11074;48.596;9.238;2023-07-29T02:41:42;17.90;99.90
21823;DHT22;11074;48.596;9.238;2023-07-29T02:44:07;17.90;99.90
21823;DHT22;11074;48.596;9.238;2023-07-29T02:46:33;17.90;99.90
21823;DHT22;11074;48.596;9.238;2023-07-29T02:48:59;17.90;99.90
21823;DHT22;11074;48.596;9.238;2023-07-29T02:51:24;17.90;99.90
21823;DHT22;11074;48.596;9.238;2023-07-29T02:53:50;17.90;99.90
21823;DHT22;11074;48.596;9.238;2023-07-29T02:56:16;17.90;99.90
21823;DHT22;11074;48.596;9.238;2023-07-29T02:58:41;17.90;99.90
21823;DHT22;11074;48.596;9.238;2023-07-29T03:01:07;17.90;99.90
21823;DHT22;11074;48.596;9.238;2023-07-29T03:03:33;17.90;99.90
21823;DHT22;11074;48.596;9.238;2023-07-29T03:06:04;17.90;99.90
21823;DHT22;11074;48.596;9.238;2023-07-29T03:08:31;17.90;99.90
21823;DHT22;11074;48.596;9.238;2023-07-29T03:10:57;17.90;99.90
21823;DHT22;11074;48.596;9.238;2023-07-29T03:13:23;17.90;99.90
21823;DHT22;11074;48.596;9.238;2023-07-29T03:15:49;17.90;99.90
21823;DHT22;11074;48.596;9.238;2023-07-29T03:18:15;17.90;99.90
21823;DHT22;11074;48.596;9.238;2023-07-29T03:20:41;17.90;99.90
21823;DHT22;11074;48.596;9.238;2023-07-29T03:23:07;17.90;99.90
21823;DHT22;11074;48.596;9.238;2023-07-29T03:25:33;17.80;99.90
21823;DHT22;11074;48.596;9.238;2023-07-29T03:27:59;17.80;99.90
21823;DHT22;11074;48.596;9.238;2023-07-29T03:30:24;17.80;99.90
21823;DHT22;11074;48.596;9.238;2023-07-29T03:32:50;17.80;99.90
21823;DHT22;11074;48.596;9.238;2023-07-29T03:35:16;17.80;99.90
21823;DHT22;11074;48.596;9.238;2023-07-29T03:37:42;17.80;99.90
21823;DHT22;11074;48.596;9.238;2023-07-29T03:40:08;17.80;99.90
21823;DHT22;11074;48.596;9.238;2023-07-29T03:42:35;17.80;99.90
21823;DHT22;11074;48.596;9.238;2023-07-29T03:45:01;17.70;99.90
21823;DHT22;11074;48.596;9.238;2023-07-29T03:47:27;17.70;99.90
21823;DHT22;11074;48.596;9.238;2023-07-29T03:49:53;17.70;99.90
21823;DHT22;11074;48.596;9.238;2023-07-29T03:52:18;17.70;99.90
21823;DHT22;11074;48.596;9.238;2023-07-29T03:54:44;17.70;99.90
21823;DHT22;11074;48.596;9.238;2023-07-29T03:57:10;17.80;99.90
21823;DHT22;11074;48.596;9.238;2023-07-29T03:59:36;17.80;99.90
21823;DHT22;11074;48.596;9.238;2023-07-29T04:02:01;17.80;99.90
21823;DHT22;11074;48.596;9.238;2023-07-29T04:04:27;17.80;99.90
21823;DHT22;11074;48.596;9.238;2023-07-29T04:06:52;17.80;99.90
21823;DHT22;11074;48.596;9.238;2023-07-29T04:09:18;17.80;99.90
21823;DHT22;11074;48.596;9.238;2023-07-29T04:11:44;17.80;99.90
21823;DHT22;11074;48.596;9.238;2023-07-29T04:14:09;17.80;99.90
21823;DHT22;11074;48.596;9.238;2023-07-29T04:16:35;17.80;99.90
21823;DHT22;11074;48.596;9.238;2023-07-29T04:19:01;17.80;99.90
21823;DHT22;11074;48.596;9.238;2023-07-29T04:21:26;17.80;99.90
21823;DHT22;11074;48.596;9.238;2023-07-29T04:23:52;17.80;99.90
21823;DHT22;11074;48.596;9.238;2023-07-29T04:26:18;17.70;99.90
21823;DHT22;11074;48.596;9.238;2023-07-29T04:28:43;17.80;99.90
21823;DHT22;11074;48.596;9.238;2023-07-29T04:31:09;17.70;99.90
21823;DHT22;11074;48.596;9.238;2023-07-29T04:33:35;17.70;99.90
21823;DHT22;11074;48.596;9.238;2023-07-29T04:36:00;17.70;99.90
21823;DHT22;11074;48.596;9.238;2023-07-29T04:38:31;17.80;99.90
21823;DHT22;11074;48.596;9.238;2023-07-29T04:40:58;17.80;99.90
21823;DHT22;11074;48.596;9.238;2023-07-29T04:43:27;17.80;99.90
21823;DHT22;11074;48.596;9.238;2023-07-29T04:45:54;17.80;99.90
21823;DHT22;11074;48.596;9.238;2023-07-29T04:48:20;17.80;99.90
21823;DHT22;11074;48.596;9.238;2023-07-29T04:50:45;17.80;99.90
21823;DHT22;11074;48.596;9.238;2023-07-29T04:53:11;17.80;99.90
21823;DHT22;11074;48.596;9.238;2023-07-29T04:55:37;17.80;99.90
21823;DHT22;11074;48.596;9.238;2023-07-29T04:58:02;17.80;99.90
21823;DHT22;11074;48.596;9.238;2023-07-29T05:00:28;17.80;99.90
21823;DHT22;11074;48.596;9.238;2023-07-29T05:02:53;17.80;99.90
21823;DHT22;11074;48.596;9.238;2023-07-29T05:05:19;17.80;99.90
21823;DHT22;11074;48.596;9.238;2023-07-29T05:07:45;17.90;99.90
21823;DHT22;11074;48.596;9.238;2023-07-29T05:10:10;17.80;99.90
21823;DHT22;11074;48.596;9.238;2023-07-29T05:12:39;17.80;99.90
21823;DHT22;11074;48.596;9.238;2023-07-29T05:15:05;17.70;99.90
21823;DHT22;11074;48.596;9.238;2023-07-29T05:17:32;17.70;99.90
21823;DHT22;11074;48.596;9.238;2023-07-29T05:19:57;17.70;99.90
21823;DHT22;11074;48.596;9.238;2023-07-29T05:22:23;17.70;99.90
21823;DHT22;11074;48.596;9.238;2023-07-29T05:24:48;17.70;99.90
21823;DHT22;11074;48.596;9.238;2023-07-29T05:27:14;17.70;99.90
21823;DHT22;11074;48.596;9.238;2023-07-29T05:29:40;17.60;99.90
21823;DHT22;11074;48.596;9.238;2023-07-29T05:32:05;17.60;99.90
21823;DHT22;11074;48.596;9.238;2023-07-29T05:34:31;17.60;99.90
21823;DHT22;11074;48.596;9.238;2023-07-29T05:36:57;17.70;99.90
21823;DHT22;11074;48.596;9.238;2023-07-29T05:39:22;17.60;99.90
21823;DHT22;11074;48.596;9.238;2023-07-29T05:41:49;17.70;99.90
21823;DHT22;11074;48.596;9.238;2023-07-29T05:44:15;17.70;99.90
21823;DHT22;11074;48.596;9.238;2023-07-29T05:46:40;17.80;99.90
21823;DHT22;11074;48.596;9.238;2023-07-29T05:49:06;17.80;99.90
21823;DHT22;11074;48.596;9.238;2023-07-29T05:51:32;17.90;99.90
21823;DHT22;11074;48.596;9.238;2023-07-29T05:53:57;17.90;99.90
21823;DHT22;11074;48.596;9.238;2023-07-29T05:56:23;18.00;99.90
21823;DHT22;11074;48.596;9.238;2023-07-29T05:58:48;18.00;99.90
21823;DHT22;11074;48.596;9.238;2023-07-29T06:01:15;18.00;99.90
21823;DHT22;11074;48.596;9.238;2023-07-29T06:03:41;18.00;99.90
21823;DHT22;11074;48.596;9.238;2023-07-29T06:06:07;18.10;99.90
21823;DHT22;11074;48.596;9.238;2023-07-29T06:08:34;18.20;99.90
21823;DHT22;11074;48.596;9.238;2023-07-29T06:11:00;18.20;99.90
21823;DHT22;11074;48.596;9.238;2023-07-29T06:13:26;18.30;99.90
21823;DHT22;11074;48.596;9.238;2023-07-29T06:15:51;18.30;99.90
21823;DHT22;11074;48.596;9.238;2023-07-29T06:18:17;18.40;99.90
21823;DHT22;11074;48.596;9.238;2023-07-29T06:20:43;18.50;99.90
21823;DHT22;11074;48.596;9.238;2023-07-29T06:23:09;18.40;99.90
21823;DHT22;11074;48.596;9.238;2023-07-29T06:25:34;18.50;99.90
21823;DHT22;11074;48.596;9.238;2023-07-29T06:28:00;18.50;99.90
21823;DHT22;11074;48.596;9.238;2023-07-29T06:30:25;18.50;99.90
21823;DHT22;11074;48.596;9.238;2023-07-29T06:32:51;18.50;99.90
21823;DHT22;11074;48.596;9.238;2023-07-29T06:35:17;18.60;99.90
21823;DHT22;11074;48.596;9.238;2023-07-29T06:37:42;18.60;99.90
21823;DHT22;11074;48.596;9.238;2023-07-29T06:40:08;18.70;99.90
21823;DHT22;11074;48.596;9.238;2023-07-29T06:42:34;18.70;99.90
21823;DHT22;11074;48.596;9.238;2023-07-29T06:45:00;18.80;99.90
21823;DHT22;11074;48.596;9.238;2023-07-29T06:47:25;18.70;99.90
21823;DHT22;11074;48.596;9.238;2023-07-29T06:49:51;18.70;99.90
21823;DHT22;11074;48.596;9.238;2023-07-29T06:52:19;18.70;99.90
21823;DHT22;11074;48.596;9.238;2023-07-29T06:54:44;18.60;99.90
21823;DHT22;11074;48.596;9.238;2023-07-29T06:57:10;18.60;99.90
21823;DHT22;11074;48.596;9.238;2023-07-29T06:59:36;18.60;99.90
21823;DHT22;11074;48.596;9.238;2023-07-29T07:02:01;18.60;99.90
21823;DHT22;11074;48.596;9.238;2023-07-29T07:04:27;18.50;99.90
21823;DHT22;11074;48.596;9.238;2023-07-29T07:06:53;18.50;99.90
21823;DHT22;11074;48.596;9.238;2023-07-29T07:09:19;18.50;99.90
21823;DHT22;11074;48.596;9.238;2023-07-29T07:11:45;18.50;99.90
21823;DHT22;11074;48.596;9.238;2023-07-29T07:14:10;18.40;99.90
21823;DHT22;11074;48.596;9.238;2023-07-29T07:16:36;18.40;99.90
21823;DHT22;11074;48.596;9.238;2023-07-29T07:19:04;18.40;99.90
21823;DHT22;11074;48.596;9.238;2023-07-29T07:21:30;18.40;99.90
21823;DHT22;11074;48.596;9.238;2023-07-29T07:23:58;18.30;99.90
21823;DHT22;11074;48.596;9.238;2023-07-29T07:26:23;18.40;99.90
21823;DHT22;11074;48.596;9.238;2023-07-29T07:28:49;18.40;99.90
21823;DHT22;11074;48.596;9.238;2023-07-29T07:31:16;18.40;99.90
21823;DHT22;11074;48.596;9.238;2023-07-29T07:33:42;18.40;99.90
21823;DHT22;11074;48.596;9.238;2023-07-29T07:36:08;18.40;99.90
21823;DHT22;11074;48.596;9.238;2023-07-29T07:38:34;18.40;99.90
21823;DHT22;11074;48.596;9.238;2023-07-29T07:40:59;18.40;99.90
21823;DHT22;11074;48.596;9.238;2023-07-29T07:43:25;18.50;99.90
21823;DHT22;11074;48.596;9.238;2023-07-29T07:45:57;18.60;99.90
21823;DHT22;11074;48.596;9.238;2023-07-29T07:48:24;18.60;99.90
21823;DHT22;11074;48.596;9.238;2023-07-29T07:50:49;18.60;99.90
21823;DHT22;11074;48.596;9.238;2023-07-29T07:53:15;18.60;99.90
21823;DHT22;11074;48.596;9.238;2023-07-29T07:55:41;18.70;99.90
21823;DHT22;11074;48.596;9.238;2023-07-29T07:58:07;18.70;99.90
21823;DHT22;11074;48.596;9.238;2023-07-29T08:00:32;18.70;99.90
21823;DHT22;11074;48.596;9.238;2023-07-29T08:02:58;18.70;99.90
21823;DHT22;11074;48.596;9.238;2023-07-29T08:05:23;18.70;99.90
21823;DHT22;11074;48.596;9.238;2023-07-29T08:07:49;18.80;99.90
21823;DHT22;11074;48.596;9.238;2023-07-29T08:10:15;18.80;99.90
21823;DHT22;11074;48.596;9.238;2023-07-29T08:12:41;19.00;99.90
21823;DHT22;11074;48.596;9.238;2023-07-29T08:15:06;18.90;99.90
21823;DHT22;11074;48.596;9.238;2023-07-29T08:17:32;19.00;99.90
21823;DHT22;11074;48.596;9.238;2023-07-29T08:19:58;19.00;99.90
21823;DHT22;11074;48.596;9.238;2023-07-29T08:22:23;19.10;99.90
21823;DHT22;11074;48.596;9.238;2023-07-29T08:24:49;19.20;99.90
21823;DHT22;11074;48.596;9.238;2023-07-29T08:27:15;19.20;99.90
21823;DHT22;11074;48.596;9.238;2023-07-29T08:29:40;19.10;99.90
21823;DHT22;11074;48.596;9.238;2023-07-29T08:32:06;19.30;99.90
21823;DHT22;11074;48.596;9.238;2023-07-29T08:34:32;19.20;99.90
21823;DHT22;11074;48.596;9.238;2023-07-29T08:36:57;19.30;99.90
21823;DHT22;11074;48.596;9.238;2023-07-29T08:39:23;19.30;99.90
21823;DHT22;11074;48.596;9.238;2023-07-29T08:42:02;19.40;99.90
21823;DHT22;11074;48.596;9.238;2023-07-29T08:44:39;19.40;99.90
21823;DHT22;11074;48.596;9.238;2023-07-29T08:47:06;19.50;99.90
21823;DHT22;11074;48.596;9.238;2023-07-29T08:49:32;19.50;99.90
21823;DHT22;11074;48.596;9.238;2023-07-29T08:51:59;19.60;99.90
21823;DHT22;11074;48.596;9.238;2023-07-29T08:54:26;19.60;99.90
21823;DHT22;11074;48.596;9.238;2023-07-29T08:56:52;19.70;99.90
21823;DHT22;11074;48.596;9.238;2023-07-29T08:59:19;19.70;99.90
21823;DHT22;11074;48.596;9.238;2023-07-29T09:01:45;19.70;99.90
21823;DHT22;11074;48.596;9.238;2023-07-29T09:04:12;19.80;99.90
21823;DHT22;11074;48.596;9.238;2023-07-29T09:06:39;19.90;99.90
21823;DHT22;11074;48.596;9.238;2023-07-29T09:09:08;19.90;99.90
21823;DHT22;11074;48.596;9.238;2023-07-29T09:11:35;20.00;99.90
21823;DHT22;11074;48.596;9.238;2023-07-29T09:14:01;20.00;99.90
21823;DHT22;11074;48.596;9.238;2023-07-29T09:16:27;20.10;99.90
21823;DHT22;11074;48.596;9.238;2023-07-29T09:18:52;20.10;99.90
21823;DHT22;11074;48.596;9.238;2023-07-29T09:21:23;20.20;99.90
21823;DHT22;11074;48.596;9.238;2023-07-29T09:23:54;20.20;99.90
21823;DHT22;11074;48.596;9.238;2023-07-29T09:26:27;20.30;99.90
21823;DHT22;11074;48.596;9.238;2023-07-29T09:28:58;20.40;99.90
21823;DHT22;11074;48.596;9.238;2023-07-29T09:31:26;20.40;99.90
21823;DHT22;11074;48.596;9.238;2023-07-29T09:33:57;20.50;99.90
21823;DHT22;11074;48.596;9.238;2023-07-29T09:36:24;20.50;99.90
21823;DHT22;11074;48.596;9.238;2023-07-29T09:38:54;20.60;99.90
21823;DHT22;11074;48.596;9.238;2023-07-29T09:41:26;20.70;99.90
21823;DHT22;11074;48.596;9.238;2023-07-29T09:44:00;20.70;99.90
21823;DHT22;11074;48.596;9.238;2023-07-29T09:46:36;20.90;99.90
21823;DHT22;11074;48.596;9.238;2023-07-29T09:49:04;21.00;99.90
21823;DHT22;11074;48.596;9.238;2023-07-29T09:51:31;21.10;99.90
21823;DHT22;11074;48.596;9.238;2023-07-29T09:53:57;21.10;99.90
21823;DHT22;11074;48.596;9.238;2023-07-29T09:56:27;21.20;99.90
21823;DHT22;11074;48.596;9.238;2023-07-29T09:58:55;21.20;99.90
21823;DHT22;11074;48.596;9.238;2023-07-29T10:01:23;21.40;99.90
21823;DHT22;11074;48.596;9.238;2023-07-29T10:03:49;21.40;99.90
21823;DHT22;11074;48.596;9.238;2023-07-29T10:06:15;21.40;99.90
21823;DHT22;11074;48.596;9.238;2023-07-29T10:08:43;21.40;99.90
21823;DHT22;11074;48.596;9.238;2023-07-29T10:11:10;21.40;99.90
21823;DHT22;11074;48.596;9.238;2023-07-29T10:13:37;21.40;99.90
21823;DHT22;11074;48.596;9.238;2023-07-29T10:16:04;21.50;99.90
21823;DHT22;11074;48.596;9.238;2023-07-29T10:18:31;21.50;99.90
21823;DHT22;11074;48.596;9.238;2023-07-29T10:20:59;21.60;99.90
21823;DHT22;11074;48.596;9.238;2023-07-29T10:23:27;21.70;99.90
21823;DHT22;11074;48.596;9.238;2023-07-29T10:26:04;21.80;99.90
21823;DHT22;11074;48.596;9.238;2023-07-29T10:28:40;21.90;99.90
21823;DHT22;11074;48.596;9.238;2023-07-29T10:31:09;21.90;99.90
21823;DHT22;11074;48.596;9.238;2023-07-29T10:33:36;22.00;99.90
21823;DHT22;11074;48.596;9.238;2023-07-29T10:36:04;22.10;99.90
21823;DHT22;11074;48.596;9.238;2023-07-29T10:38:30;22.20;99.90
21823;DHT22;11074;48.596;9.238;2023-07-29T10:40:57;22.30;99.90
21823;DHT22;11074;48.596;9.238;2023-07-29T10:43:31;22.40;99.90
21823;DHT22;11074;48.596;9.238;2023-07-29T10:46:18;22.60;99.90
21823;DHT22;11074;48.596;9.238;2023-07-29T10:54:13;22.70;99.90
21823;DHT22;11074;48.596;9.238;2023-07-29T10:56:47;22.80;99.90
21823;DHT22;11074;48.596;9.238;2023-07-29T11:01:59;22.90;99.90
21823;DHT22;11074;48.596;9.238;2023-07-29T11:04:27;22.90;99.90
21823;DHT22;11074;48.596;9.238;2023-07-29T11:12:39;23.20;99.90
21823;DHT22;11074;48.596;9.238;2023-07-29T11:15:29;23.30;99.90
21823;DHT22;11074;48.596;9.238;2023-07-29T11:17:56;23.30;99.90
21823;DHT22;11074;48.596;9.238;2023-07-29T11:20:29;23.40;99.90
21823;DHT22;11074;48.596;9.238;2023-07-29T11:22:58;23.50;99.90
21823;DHT22;11074;48.596;9.238;2023-07-29T11:25:29;23.50;99.90
21823;DHT22;11074;48.596;9.238;2023-07-29T11:27:57;23.50;99.90
21823;DHT22;11074;48.596;9.238;2023-07-29T11:30:24;23.40;99.90
21823;DHT22;11074;48.596;9.238;2023-07-29T11:32:53;23.40;99.90
21823;DHT22;11074;48.596;9.238;2023-07-29T11:35:20;23.50;99.90
21823;DHT22;11074;48.596;9.238;2023-07-29T11:37:51;23.50;99.90
21823;DHT22;11074;48.596;9.238;2023-07-29T11:40:19;23.50;99.90
21823;DHT22;11074;48.596;9.238;2023-07-29T11:42:46;23.70;99.90
21823;DHT22;11074;48.596;9.238;2023-07-29T11:45:14;23.90;99.90
21823;DHT22;11074;48.596;9.238;2023-07-29T11:47:40;23.90;99.90
21823;DHT22;11074;48.596;9.238;2023-07-29T11:50:08;23.90;99.90
21823;DHT22;11074;48.596;9.238;2023-07-29T11:52:36;24.10;99.90
21823;DHT22;11074;48.596;9.238;2023-07-29T11:55:05;24.30;99.90
21823;DHT22;11074;48.596;9.238;2023-07-29T11:57:35;24.50;99.90
21823;DHT22;11074;48.596;9.238;2023-07-29T12:00:07;24.50;99.90
21823;DHT22;11074;48.596;9.238;2023-07-29T12:02:40;24.70;99.90
21823;DHT22;11074;48.596;9.238;2023-07-29T12:05:10;24.80;99.90
21823;DHT22;11074;48.596;9.238;2023-07-29T12:07:40;24.60;99.90
21823;DHT22;11074;48.596;9.238;2023-07-29T12:10:08;24.40;99.90
21823;DHT22;11074;48.596;9.238;2023-07-29T12:12:45;24.50;99.90
21823;DHT22;11074;48.596;9.238;2023-07-29T12:15:23;24.60;99.90
21823;DHT22;11074;48.596;9.238;2023-07-29T12:17:53;24.80;99.90
21823;DHT22;11074;48.596;9.238;2023-07-29T12:20:21;24.80;99.90
21823;DHT22;11074;48.596;9.238;2023-07-29T12:22:58;24.70;99.90
21823;DHT22;11074;48.596;9.238;2023-07-29T12:25:28;25.00;99.90
21823;DHT22;11074;48.596;9.238;2023-07-29T12:27:54;25.10;99.90
21823;DHT22;11074;48.596;9.238;2023-07-29T12:30:21;25.30;99.90
21823;DHT22;11074;48.596;9.238;2023-07-29T12:32:47;25.20;99.90
21823;DHT22;11074;48.596;9.238;2023-07-29T12:35:14;25.10;99.90
21823;DHT22;11074;48.596;9.238;2023-07-29T12:37:40;25.20;99.90
21823;DHT22;11074;48.596;9.238;2023-07-29T12:40:21;25.30;99.90
21823;DHT22;11074;48.596;9.238;2023-07-29T12:42:51;25.30;99.90
21823;DHT22;11074;48.596;9.238;2023-07-29T12:45:17;25.20;99.90
21823;DHT22;11074;48.596;9.238;2023-07-29T12:47:43;25.10;99.90
21823;DHT22;11074;48.596;9.238;2023-07-29T12:50:09;25.00;99.90
21823;DHT22;11074;48.596;9.238;2023-07-29T12:52:35;24.80;99.90
21823;DHT22;11074;48.596;9.238;2023-07-29T12:55:01;24.80;99.90
21823;DHT22;11074;48.596;9.238;2023-07-29T12:57:26;24.70;99.90
21823;DHT22;11074;48.596;9.238;2023-07-29T12:59:52;24.70;99.90
21823;DHT22;11074;48.596;9.238;2023-07-29T13:02:17;24.70;99.90
21823;DHT22;11074;48.596;9.238;2023-07-29T13:04:43;24.60;99.90
21823;DHT22;11074;48.596;9.238;2023-07-29T13:07:09;24.60;99.90
21823;DHT22;11074;48.596;9.238;2023-07-29T13:09:34;24.70;99.90
21823;DHT22;11074;48.596;9.238;2023-07-29T13:12:00;24.80;99.90
21823;DHT22;11074;48.596;9.238;2023-07-29T13:14:25;24.80;99.90
21823;DHT22;11074;48.596;9.238;2023-07-29T13:16:51;24.80;99.90
21823;DHT22;11074;48.596;9.238;2023-07-29T13:19:18;24.80;99.90
21823;DHT22;11074;48.596;9.238;2023-07-29T13:21:44;24.80;99.90
21823;DHT22;11074;48.596;9.238;2023-07-29T13:24:09;24.90;99.90
21823;DHT22;11074;48.596;9.238;2023-07-29T13:26:35;25.00;99.90
21823;DHT22;11074;48.596;9.238;2023-07-29T13:29:01;25.00;99.90
21823;DHT22;11074;48.596;9.238;2023-07-29T13:31:26;25.10;99.90
21823;DHT22;11074;48.596;9.238;2023-07-29T13:33:52;25.10;99.90
21823;DHT22;11074;48.596;9.238;2023-07-29T13:36:17;24.90;99.90
21823;DHT22;11074;48.596;9.238;2023-07-29T13:38:43;25.00;99.90
21823;DHT22;11074;48.596;9.238;2023-07-29T13:41:08;25.00;99.90
21823;DHT22;11074;48.596;9.238;2023-07-29T13:43:34;25.00;99.90
21823;DHT22;11074;48.596;9.238;2023-07-29T13:46:00;25.10;99.90
21823;DHT22;11074;48.596;9.238;2023-07-29T13:48:25;25.10;99.90
21823;DHT22;11074;48.596;9.238;2023-07-29T13:50:51;25.10;99.90
21823;DHT22;11074;48.596;9.238;2023-07-29T13:53:17;25.10;99.90
21823;DHT22;11074;48.596;9.238;2023-07-29T13:55:43;25.10;99.90
21823;DHT22;11074;48.596;9.238;2023-07-29T13:58:08;25.30;99.90
21823;DHT22;11074;48.596;9.238;2023-07-29T14:00:34;25.30;99.90
21823;DHT22;11074;48.596;9.238;2023-07-29T14:03:00;25.40;99.90
21823;DHT22;11074;48.596;9.238;2023-07-29T14:05:25;25.30;99.90
21823;DHT22;11074;48.596;9.238;2023-07-29T14:07:51;25.20;99.90
21823;DHT22;11074;48.596;9.238;2023-07-29T14:10:17;25.10;99.90
21823;DHT22;11074;48.596;9.238;2023-07-29T14:12:42;25.10;99.90
21823;DHT22;11074;48.596;9.238;2023-07-29T14:15:08;25.00;99.90
21823;DHT22;11074;48.596;9.238;2023-07-29T14:17:34;25.10;99.90
21823;DHT22;11074;48.596;9.238;2023-07-29T14:19:59;25.10;99.90
21823;DHT22;11074;48.596;9.238;2023-07-29T14:22:25;25.30;99.90
21823;DHT22;11074;48.596;9.238;2023-07-29T14:24:51;25.40;99.90
21823;DHT22;11074;48.596;9.238;2023-07-29T14:27:16;25.50;99.90
21823;DHT22;11074;48.596;9.238;2023-07-29T14:29:42;25.50;99.90
21823;DHT22;11074;48.596;9.238;2023-07-29T14:32:08;25.60;99.90
21823;DHT22;11074;48.596;9.238;2023-07-29T14:34:34;25.70;99.90
21823;DHT22;11074;48.596;9.238;2023-07-29T14:36:59;25.70;99.90
21823;DHT22;11074;48.596;9.238;2023-07-29T14:39:25;25.80;99.90
21823;DHT22;11074;48.596;9.238;2023-07-29T14:41:50;25.90;99.90
21823;DHT22;11074;48.596;9.238;2023-07-29T14:44:16;25.90;99.90
21823;DHT22;11074;48.596;9.238;2023-07-29T14:46:41;25.80;99.90
21823;DHT22;11074;48.596;9.238;2023-07-29T14:49:07;25.70;99.90
21823;DHT22;11074;48.596;9.238;2023-07-29T14:51:33;25.70;99.90
21823;DHT22;11074;48.596;9.238;2023-07-29T14:53:59;25.60;99.90
21823;DHT22;11074;48.596;9.238;2023-07-29T14:56:25;25.60;99.90
21823;DHT22;11074;48.596;9.238;2023-07-29T14:58:51;25.50;99.90
21823;DHT22;11074;48.596;9.238;2023-07-29T15:01:16;25.60;99.90
21823;DHT22;11074;48.596;9.238;2023-07-29T15:03:42;25.50;99.90
21823;DHT22;11074;48.596;9.238;2023-07-29T15:06:07;25.40;99.90
21823;DHT22;11074;48.596;9.238;2023-07-29T15:08:33;25.40;99.90
21823;DHT22;11074;48.596;9.238;2023-07-29T15:10:59;25.40;99.90
21823;DHT22;11074;48.596;9.238;2023-07-29T15:13:24;25.30;99.90
21823;DHT22;11074;48.596;9.238;2023-07-29T15:15:50;25.30;99.90
21823;DHT22;11074;48.596;9.238;2023-07-29T15:18:16;25.20;99.90
21823;DHT22;11074;48.596;9.238;2023-07-29T15:20:42;25.30;99.90
21823;DHT22;11074;48.596;9.238;2023-07-29T15:23:07;25.20;99.90
21823;DHT22;11074;48.596;9.238;2023-07-29T15:25:33;25.20;99.90
21823;DHT22;11074;48.596;9.238;2023-07-29T15:27:58;25.20;99.90
21823;DHT22;11074;48.596;9.238;2023-07-29T15:30:24;25.10;99.90
21823;DHT22;11074;48.596;9.238;2023-07-29T15:32:50;25.20;99.90
21823;DHT22;11074;48.596;9.238;2023-07-29T15:35:15;25.10;99.90
21823;DHT22;11074;48.596;9.238;2023-07-29T15:37:41;25.20;99.90
21823;DHT22;11074;48.596;9.238;2023-07-29T15:40:07;25.10;99.90
21823;DHT22;11074;48.596;9.238;2023-07-29T15:42:33;25.20;99.90
21823;DHT22;11074;48.596;9.238;2023-07-29T15:44:59;25.30;99.90
21823;DHT22;11074;48.596;9.238;2023-07-29T15:47:25;25.20;99.90
21823;DHT22;11074;48.596;9.238;2023-07-29T15:49:51;25.40;99.90
21823;DHT22;11074;48.596;9.238;2023-07-29T15:52:16;25.40;99.90
21823;DHT22;11074;48.596;9.238;2023-07-29T15:54:42;25.50;99.90